Cedar Gap, Missouri
Current Conditions -  °F | °C
As of 9:34 AM on Thursday 18 Dec 2014 (Local Time) from KSGF Reporting Station
Overcast Overcast  
Wind Chill: 28°   Ceiling: 400
Heat Index: 34°   Visibility: 9mi
Dew Point: 33°   Wind: 7mph
Humidity: 96%   Direction: 160°SSE
Pressure: 30.19"   Gusts: NA
Location:  37.1564°N, 92.7897°W
Report Text: KSGF 181534Z 16006KT 9SM OVC004 01/01 A3019 RMK AO2 T00110006
Loading
Personal Weather Stations






























Interactive Weather Map New forecast layout! Learn more

10-Day Weather Forecast

Advertisements
Track Severe Weather on mobile